Whitleyville, Tennessee
Current Conditions -  °F | °C
As of 3:15 PM on Saturday 22 Nov 2014 (Local Time) from KSRB Reporting Station
Broken Clouds Broken Clouds  
Wind Chill: 17°   Ceiling: 10000
Heat Index: 17°   Visibility: 10mi
Dew Point:   Wind: 9mph
Humidity: 37%   Direction: 200°SSW
Pressure: 30.19"   Gusts: NA
Location:  36.45°N, 85.74°W
Report Text: KSRB 222115Z AUTO 20008KT 10SM BKN100 17/02 A3019 RMK
Loading
Personal Weather Stations






























Interactive Weather Map New forecast layout! Learn more

10-Day Weather Forecast

Advertisements
Track Severe Weather on mobile